Archival Weather

Snohomish County (Paine Fld)

Everett, Washington (KPAE)

Report from: Saturday, November 18, 2023 10:53 AM PST
Current time: Friday, June 21, 2024 1:43 AM PDT

Current weather – Weather history – Daily summaries
Weather forecast

Temperature10.6°C (51.1°F)
Dew point2.2°C (36.0°F)
Winds 6 kts (3.1 m/s, 6.9 mph) South-Southeast (150°)
Visibility10 mi. (16.1 km)
Clouds Sky clear
Altimeter29.73 in.Hg (1007 mB)
Relative humidity56 %
Density altitude-205 ft. (-63 m)
Sea-level pressure100.7 kPa (1007 mB, 29.74 in.Hg)
Remarks Automated weather observing station with precipitation discriminator
Flight conditions Visual Meteorological Conditions
Raw dataKPAE 181853Z 15006KT 10SM CLR 11/02 A2973 RMK AO2 SLP070 T01060022
An error has occurred. This application may no longer respond until reloaded. Reload 🗙